Time;durP1;ratioP1;P1;durP2;ratioP2;P2;SDS_P1;SDS_P2;PMS_P1;PMS_P2;Temp;Humidity;BMP_temperature;BMP_pressure;BME280_temperature;BME280_humidity;BME280_pressure;Samples;Min_cycle;Max_cycle;Signal;HPM_P1;HPM_P2
2023/07/31 00:01:50;;;;;;;21.52;7.80;;;;;;;17.45;100.00;100905.28;5112892;28;20481;-62
2023/07/31 00:04:18;;;;;;;25.15;8.60;;;;;;;17.52;100.00;100904.84;5093709;28;20043;-63
2023/07/31 00:06:45;;;;;;;17.90;8.05;;;;;;;17.52;100.00;100904.84;5095675;28;20043;-63
2023/07/31 00:09:13;;;;;;;15.13;6.63;;;;;;;17.57;100.00;100900.00;5113521;28;20048;-61
2023/07/31 00:11:41;;;;;;;23.17;8.00;;;;;;;17.59;100.00;100910.72;5113426;28;20043;-61
2023/07/31 00:14:09;;;;;;;16.25;7.20;;;;;;;17.53;100.00;100903.69;5112200;28;20530;-60
2023/07/31 00:16:37;;;;;;;19.38;8.75;;;;;;;17.49;100.00;100903.53;5078943;28;20070;-61
2023/07/31 00:19:05;;;;;;;22.00;7.78;;;;;;;17.43;100.00;100910.28;5113322;28;20047;-57
2023/07/31 00:21:33;;;;;;;14.35;6.50;;;;;;;17.42;100.00;100901.19;5115432;28;20056;-61
2023/07/31 00:24:01;;;;;;;18.58;6.75;;;;;;;17.48;100.00;100906.56;5117014;28;20046;-64
2023/07/31 00:26:28;;;;;;;17.40;6.28;;;;;;;17.46;100.00;100891.19;5114745;28;20047;-61
2023/07/31 00:28:56;;;;;;;19.88;7.40;;;;;;;17.45;100.00;100897.00;5081982;28;20047;-62
2023/07/31 00:31:24;;;;;;;12.57;5.40;;;;;;;17.49;100.00;100897.22;5117280;28;20061;-61
2023/07/31 00:33:52;;;;;;;18.35;6.90;;;;;;;17.51;100.00;100895.75;5098649;28;20048;-62
2023/07/31 00:36:20;;;;;;;10.95;4.43;;;;;;;17.49;100.00;100886.19;5116016;28;20404;-63
2023/07/31 00:38:49;;;;;;;16.30;5.57;;;;;;;17.48;100.00;100890.06;5099007;28;20088;-62
2023/07/31 00:41:16;;;;;;;18.42;6.95;;;;;;;17.46;100.00;100890.34;5116875;28;20051;-62
2023/07/31 00:43:44;;;;;;;20.80;7.80;;;;;;;17.46;100.00;100888.44;5098856;28;20498;-63
2023/07/31 00:46:12;;;;;;;20.02;6.43;;;;;;;17.48;100.00;100890.06;5116254;28;20063;-63
2023/07/31 00:48:41;;;;;;;17.73;6.68;;;;;;;17.44;100.00;100896.19;5079800;28;20096;-63
2023/07/31 00:51:09;;;;;;;14.98;5.72;;;;;;;17.42;100.00;100895.69;5095194;28;20063;-61
2023/07/31 00:53:37;;;;;;;13.32;4.70;;;;;;;17.48;100.00;100885.34;5098236;28;20051;-61
2023/07/31 00:56:06;;;;;;;16.42;6.90;;;;;;;17.60;100.00;100884.78;5097709;28;20053;-61
2023/07/31 00:58:34;;;;;;;19.23;7.05;;;;;;;17.54;100.00;100889.63;5097482;28;20043;-60
2023/07/31 01:01:02;;;;;;;15.88;6.53;;;;;;;17.45;100.00;100881.28;5114858;28;20061;-60
2023/07/31 01:03:30;;;;;;;14.02;5.13;;;;;;;17.41;100.00;100885.81;5098252;28;20503;-62
2023/07/31 01:06:05;;;;;;;16.77;6.53;;;;;;;17.43;100.00;100872.50;5097701;28;20043;-61
2023/07/31 01:08:45;;;;;;;14.48;5.78;;;;;;;17.41;100.00;100885.81;5096483;28;20047;-61
2023/07/31 01:11:19;;;;;;;16.33;6.40;;;;;;;17.38;100.00;100877.34;5097203;28;20051;-61
2023/07/31 01:13:47;;;;;;;15.95;6.32;;;;;;;17.44;100.00;100885.19;5098223;28;20048;-61
2023/07/31 01:16:15;;;;;;;15.02;6.50;;;;;;;17.40;100.00;100877.84;5081247;28;20054;-62
2023/07/31 01:18:43;;;;;;;15.65;5.78;;;;;;;17.36;100.00;100877.66;5095650;28;20052;-64
2023/07/31 01:21:23;;;;;;;16.02;6.38;;;;;;;17.37;100.00;100873.78;5095210;28;20433;-61
2023/07/31 01:24:21;;;;;;;16.48;6.13;;;;;;;17.39;100.00;100874.28;5098096;28;20074;-64
2023/07/31 01:26:57;;;;;;;18.40;6.50;;;;;;;17.42;100.00;100876.41;5097041;28;20052;-60
2023/07/31 01:29:38;;;;;;;14.48;5.22;;;;;;;17.49;100.00;100883.44;5096838;28;20052;-62
2023/07/31 01:32:07;;;;;;;16.23;5.82;;;;;;;17.52;100.00;100877.28;5080111;28;20054;-63
2023/07/31 01:34:35;;;;;;;12.35;4.90;;;;;;;17.46;100.00;100877.41;5081005;28;20043;-62
2023/07/31 01:37:03;;;;;;;18.80;6.30;;;;;;;17.45;100.00;100878.53;5097714;28;20047;-62
2023/07/31 01:39:31;;;;;;;17.50;6.13;;;;;;;17.58;100.00;100873.25;5115934;28;20047;-62
2023/07/31 01:41:59;;;;;;;20.25;6.35;;;;;;;17.51;100.00;100873.72;5112858;28;20039;-61
2023/07/31 01:44:26;;;;;;;18.27;6.03;;;;;;;17.47;100.00;100872.72;5097452;28;20052;-62
2023/07/31 01:46:54;;;;;;;17.20;6.53;;;;;;;17.44;100.00;100865.91;5095910;28;20083;-61
2023/07/31 01:49:22;;;;;;;18.20;6.43;;;;;;;17.48;100.00;100865.25;5114272;28;20047;-61
2023/07/31 01:51:50;;;;;;;13.77;5.70;;;;;;;17.52;100.00;100867.06;5113997;28;20108;-63
2023/07/31 01:54:17;;;;;;;11.65;5.45;;;;;;;17.45;100.00;100870.25;5111199;28;20050;-60
2023/07/31 01:56:45;;;;;;;16.67;6.15;;;;;;;17.42;100.00;100859.06;5113198;28;20047;-63
2023/07/31 01:59:13;;;;;;;13.00;5.22;;;;;;;17.34;100.00;100852.38;5115409;28;20040;-61
2023/07/31 02:01:41;;;;;;;18.52;6.22;;;;;;;17.28;100.00;100859.13;5113860;28;20050;-61
2023/07/31 02:04:09;;;;;;;11.38;4.63;;;;;;;17.28;100.00;100842.59;5112998;28;20058;-58
2023/07/31 02:06:37;;;;;;;18.63;6.15;;;;;;;17.28;100.00;100848.09;5114266;28;20096;-61
2023/07/31 02:09:06;;;;;;;18.40;6.55;;;;;;;17.29;100.00;100852.47;5113746;28;20047;-61
2023/07/31 02:11:34;;;;;;;13.85;5.28;;;;;;;17.26;100.00;100855.88;5145596;27;20051;-63
2023/07/31 02:14:02;;;;;;;16.73;5.90;;;;;;;17.27;100.00;100841.00;5113537;28;20051;-61
2023/07/31 02:16:30;;;;;;;14.35;6.28;;;;;;;17.30;100.00;100843.09;5112509;28;20095;-60
2023/07/31 02:18:57;;;;;;;11.13;5.20;;;;;;;17.33;100.00;100841.66;5114574;28;20095;-61
2023/07/31 02:21:26;;;;;;;18.70;6.60;;;;;;;17.33;100.00;100838.91;5115210;28;20516;-63
2023/07/31 02:23:54;;;;;;;13.73;5.38;;;;;;;17.27;100.00;100832.72;5114197;28;20055;-61
2023/07/31 02:26:21;;;;;;;16.55;6.10;;;;;;;17.26;100.00;100831.09;5082983;28;20044;-62
2023/07/31 02:28:49;;;;;;;17.45;5.95;;;;;;;17.31;100.00;100830.16;5106026;28;20096;-64
2023/07/31 02:31:17;;;;;;;16.48;6.70;;;;;;;17.29;100.00;100832.41;5113072;28;20051;-64
2023/07/31 02:33:48;;;;;;;17.63;6.35;;;;;;;17.34;100.00;100830.34;5114566;28;20047;-61
2023/07/31 02:36:16;;;;;;;22.10;6.97;;;;;;;17.21;100.00;100831.22;5114760;28;20426;-61
2023/07/31 02:38:44;;;;;;;14.90;5.95;;;;;;;17.19;100.00;100827.94;5096003;28;20115;-61
2023/07/31 02:41:12;;;;;;;16.60;6.95;;;;;;;17.19;100.00;100823.25;5113897;28;20047;-60
2023/07/31 02:43:40;;;;;;;14.23;5.25;;;;;;;17.18;100.00;100816.13;5095971;28;20043;-61
2023/07/31 02:46:08;;;;;;;19.60;7.05;;;;;;;17.14;100.00;100815.13;5092886;28;20055;-61
2023/07/31 02:48:35;;;;;;;17.55;6.50;;;;;;;17.18;100.00;100823.59;5095743;28;20048;-60
2023/07/31 02:51:03;;;;;;;19.13;7.45;;;;;;;17.13;100.00;100815.44;5114204;28;20051;-61
2023/07/31 02:53:31;;;;;;;13.77;4.95;;;;;;;17.12;100.00;100811.06;5108661;28;20036;-59
2023/07/31 02:55:59;;;;;;;15.32;6.05;;;;;;;17.17;100.00;100814.50;5092776;28;20051;-62
2023/07/31 02:58:26;;;;;;;19.52;6.47;;;;;;;17.19;100.00;100806.72;5093849;28;20063;-63
2023/07/31 03:00:54;;;;;;;20.95;7.43;;;;;;;17.18;100.00;100809.81;5091397;28;20048;-63
2023/07/31 03:03:22;;;;;;;13.65;5.65;;;;;;;17.15;100.00;100814.00;5089549;28;20040;-62
2023/07/31 03:05:50;;;;;;;16.73;7.13;;;;;;;17.15;100.00;100813.16;5113383;28;20040;-61
2023/07/31 03:08:18;;;;;;;14.50;6.22;;;;;;;17.16;100.00;100812.06;5113022;28;20052;-63
2023/07/31 03:10:46;;;;;;;17.63;7.20;;;;;;;17.17;100.00;100811.75;5112904;28;20514;-61
2023/07/31 03:13:13;;;;;;;15.95;6.65;;;;;;;17.19;100.00;100811.44;5112881;28;20433;-63
2023/07/31 03:15:44;;;;;;;15.55;6.10;;;;;;;17.26;100.00;100811.81;5113185;28;20047;-62
2023/07/31 03:18:12;;;;;;;15.07;7.07;;;;;;;17.26;100.00;100806.31;5099362;28;20051;-62
2023/07/31 03:20:44;;;;;;;17.38;6.45;;;;;;;17.16;100.00;100806.56;5110450;28;20036;-61
2023/07/31 03:23:11;;;;;;;17.20;5.93;;;;;;;17.14;100.00;100808.81;5112595;28;20047;-61
2023/07/31 03:25:41;;;;;;;17.63;6.60;;;;;;;17.14;100.00;100808.81;5112946;28;20038;-61
2023/07/31 03:28:09;;;;;;;15.73;6.75;;;;;;;17.15;100.00;100811.25;5100437;28;20050;-61
2023/07/31 03:30:38;;;;;;;18.77;7.00;;;;;;;17.12;100.00;100806.34;5115896;28;20043;-61
2023/07/31 03:33:05;;;;;;;13.70;6.25;;;;;;;17.10;100.00;100811.38;5125668;28;20071;-63
2023/07/31 03:35:33;;;;;;;12.88;5.28;;;;;;;17.28;100.00;100804.06;5131182;28;20079;-59
2023/07/31 03:38:01;;;;;;;16.23;6.43;;;;;;;17.28;100.00;100793.03;5124911;28;20115;-60
2023/07/31 03:40:29;;;;;;;10.38;4.32;;;;;;;17.26;100.00;100789.78;5121445;28;20051;-61
2023/07/31 03:42:56;;;;;;;12.68;5.03;;;;;;;17.39;100.00;100782.56;5120310;28;20135;-61
2023/07/31 03:45:24;;;;;;;16.05;6.15;;;;;;;17.31;100.00;100786.09;5122498;28;20059;-62
2023/07/31 03:47:53;;;;;;;11.85;5.60;;;;;;;17.40;100.00;100786.97;5113050;28;20108;-61
2023/07/31 03:50:21;;;;;;;14.07;5.70;;;;;;;17.36;100.00;100784.00;5103383;28;20450;-62
2023/07/31 03:52:49;;;;;;;11.93;5.60;;;;;;;17.30;100.00;100778.97;5102393;28;20115;-59
2023/07/31 03:55:17;;;;;;;15.48;6.05;;;;;;;17.33;100.00;100779.13;5115073;28;20048;-63
2023/07/31 03:57:45;;;;;;;18.50;6.22;;;;;;;17.21;100.00;100776.94;5122377;28;20054;-61
2023/07/31 04:00:13;;;;;;;16.65;6.68;;;;;;;17.12;100.00;100778.00;5116955;28;20040;-60
2023/07/31 04:02:41;;;;;;;14.73;6.35;;;;;;;17.16;100.00;100773.53;5116868;28;20051;-59
2023/07/31 04:05:10;;;;;;;14.38;5.60;;;;;;;17.16;100.00;100770.75;5116585;28;20047;-61
2023/07/31 04:07:38;;;;;;;14.35;5.70;;;;;;;17.16;100.00;100765.25;5113882;28;20091;-60
2023/07/31 04:10:07;;;;;;;16.05;5.95;;;;;;;17.10;100.00;100763.75;5114344;28;20384;-61
2023/07/31 04:12:38;;;;;;;17.65;5.60;;;;;;;17.09;100.00;100762.13;5116721;28;20047;-61
2023/07/31 04:15:07;;;;;;;16.70;6.30;;;;;;;17.15;100.00;100767.22;5117230;28;20069;-61
2023/07/31 04:17:34;;;;;;;12.48;5.57;;;;;;;17.22;100.00;100752.97;5117408;28;20059;-59
2023/07/31 04:20:02;;;;;;;15.70;6.50;;;;;;;17.20;100.00;100755.25;5098489;28;20518;-61
2023/07/31 04:22:30;;;;;;;13.48;5.93;;;;;;;17.19;100.00;100756.34;5116464;28;20410;-62
2023/07/31 04:24:58;;;;;;;14.27;5.93;;;;;;;17.15;100.00;100756.19;5115563;28;20054;-62
2023/07/31 04:27:26;;;;;;;13.32;5.13;;;;;;;17.10;100.00;100750.81;5115685;28;20040;-62
2023/07/31 04:29:54;;;;;;;15.68;5.97;;;;;;;17.11;100.00;100746.94;5117050;28;20043;-63
2023/07/31 04:32:21;;;;;;;15.45;5.75;;;;;;;17.15;100.00;100745.19;5116369;28;20046;-61
2023/07/31 04:34:49;;;;;;;12.88;6.13;;;;;;;17.17;100.00;100753.09;5098733;28;20377;-60
2023/07/31 04:37:17;;;;;;;16.52;6.13;;;;;;;17.12;100.00;100744.97;5101401;28;20425;-62
2023/07/31 04:39:45;;;;;;;17.50;6.15;;;;;;;17.15;100.00;100744.34;5116612;28;20052;-61
2023/07/31 04:42:12;;;;;;;12.77;4.85;;;;;;;17.18;100.00;100744.53;5115203;28;20051;-63
2023/07/31 04:44:40;;;;;;;14.32;4.88;;;;;;;17.22;100.00;100744.72;5115462;28;20043;-62
2023/07/31 04:47:08;;;;;;;16.83;6.03;;;;;;;17.21;100.00;100738.41;5115575;28;20381;-61
2023/07/31 04:49:36;;;;;;;11.70;5.00;;;;;;;17.21;100.00;100740.34;5131559;27;20056;-61
2023/07/31 04:52:04;;;;;;;12.77;5.13;;;;;;;17.20;100.00;100730.47;5113699;28;20395;-64
2023/07/31 04:54:32;;;;;;;14.52;5.75;;;;;;;17.20;100.00;100736.78;5115604;28;20044;-62
2023/07/31 04:57:00;;;;;;;11.80;5.20;;;;;;;17.27;100.00;100735.50;5117192;28;20044;-62
2023/07/31 04:59:27;;;;;;;15.80;6.07;;;;;;;17.31;100.00;100737.31;5118042;28;20091;-63
2023/07/31 05:01:55;;;;;;;16.65;5.63;;;;;;;17.21;100.00;100737.59;5120458;28;20039;-63
2023/07/31 05:04:23;;;;;;;14.50;5.53;;;;;;;17.22;100.00;100722.69;5115415;28;20044;-62
2023/07/31 05:06:51;;;;;;;11.73;4.30;;;;;;;17.17;100.00;100725.56;5115154;28;20047;-63
2023/07/31 05:09:19;;;;;;;12.57;5.13;;;;;;;17.17;100.00;100720.06;5116034;28;20055;-60
2023/07/31 05:11:46;;;;;;;14.43;5.57;;;;;;;17.24;100.00;100712.16;5114464;28;20040;-63
2023/07/31 05:14:15;;;;;;;12.43;5.57;;;;;;;17.30;100.00;100719.19;5113609;28;20055;-63
2023/07/31 05:16:43;;;;;;;14.10;5.38;;;;;;;17.20;100.00;100717.50;5116393;28;20047;-62
2023/07/31 05:19:11;;;;;;;10.10;4.88;;;;;;;17.30;100.00;100708.16;5115634;28;20137;-62
2023/07/31 05:21:39;;;;;;;12.45;4.93;;;;;;;17.34;100.00;100705.56;5115855;28;20096;-61
2023/07/31 05:24:07;;;;;;;13.63;5.78;;;;;;;17.32;100.00;100696.81;5113819;28;20073;-62
2023/07/31 05:26:35;;;;;;;15.50;5.32;;;;;;;17.37;100.00;100693.94;5113586;28;20069;-67
2023/07/31 05:29:02;;;;;;;10.20;4.88;;;;;;;17.55;100.00;100700.34;5114595;28;20047;-61
2023/07/31 05:31:32;;;;;;;13.18;5.35;;;;;;;17.54;100.00;100695.97;5115896;28;20047;-64
2023/07/31 05:34:00;;;;;;;15.13;5.27;;;;;;;17.47;100.00;100696.41;4758031;28;10000223;-64
2023/07/31 05:36:27;;;;;;;11.75;4.82;;;;;;;17.46;100.00;100690.09;5112066;28;20350;-65
2023/07/31 05:38:55;;;;;;;13.45;5.80;;;;;;;17.38;100.00;100688.09;5111155;28;20108;-66
2023/07/31 05:41:24;;;;;;;15.82;5.75;;;;;;;17.43;100.00;100689.91;5112341;28;20058;-63
2023/07/31 05:43:51;;;;;;;13.98;5.07;;;;;;;17.49;100.00;100691.41;5111745;28;20051;-63
2023/07/31 05:46:19;;;;;;;12.02;5.18;;;;;;;17.52;100.00;100681.69;5111413;28;20055;-63
2023/07/31 05:48:47;;;;;;;12.00;5.72;;;;;;;17.58;100.00;100685.91;5111464;28;20055;-62
2023/07/31 05:51:15;;;;;;;14.07;5.65;;;;;;;17.52;100.00;100687.19;5109269;28;20047;-64
2023/07/31 05:53:43;;;;;;;10.35;4.82;;;;;;;17.46;100.00;100681.00;5107565;28;20067;-64
2023/07/31 05:56:11;;;;;;;12.80;5.13;;;;;;;17.41;100.00;100670.97;5081931;28;20060;-64
2023/07/31 05:58:39;;;;;;;21.38;5.53;;;;;;;17.46;100.00;100670.81;5091335;28;20059;-65
2023/07/31 06:01:06;;;;;;;13.65;5.07;;;;;;;17.40;100.00;100674.03;5091277;28;20048;-62
2023/07/31 06:03:34;;;;;;;11.45;4.60;;;;;;;17.60;100.00;100670.69;5075930;28;20035;-62
2023/07/31 06:06:02;;;;;;;12.07;5.30;;;;;;;17.55;100.00;100665.31;5111876;28;20051;-63
2023/07/31 06:08:30;;;;;;;10.10;4.63;;;;;;;17.50;100.00;100670.19;5111108;28;20055;-64
2023/07/31 06:10:58;;;;;;;12.88;5.03;;;;;;;17.38;100.00;100665.25;5111436;28;20103;-65
2023/07/31 06:13:26;;;;;;;10.73;4.85;;;;;;;17.32;100.00;100669.28;5109926;28;20407;-64
2023/07/31 06:15:54;;;;;;;14.00;5.32;;;;;;;17.29;100.00;100656.97;5110601;28;20562;-63
2023/07/31 06:18:22;;;;;;;9.90;4.00;;;;;;;17.32;100.00;100670.13;5110105;28;20056;-61
2023/07/31 06:20:53;;;;;;;12.50;5.43;;;;;;;17.46;100.00;100657.03;5111136;28;20058;-64
2023/07/31 06:23:21;;;;;;;12.90;5.90;;;;;;;17.52;100.00;100665.16;5109603;28;20052;-64
2023/07/31 06:25:48;;;;;;;12.27;5.80;;;;;;;17.41;100.00;100664.63;5090851;28;20044;-64
2023/07/31 06:28:16;;;;;;;12.23;5.57;;;;;;;17.39;100.00;100658.63;5114491;28;20047;-65
2023/07/31 06:30:44;;;;;;;13.00;5.80;;;;;;;17.42;100.00;100661.56;5113705;28;20048;-62
2023/07/31 06:33:12;;;;;;;8.80;4.10;;;;;;;17.50;100.00;100656.41;5113008;28;20399;-64
2023/07/31 06:35:40;;;;;;;6.90;4.03;;;;;;;17.46;100.00;100658.97;5115875;27;20044;-64
2023/07/31 06:38:07;;;;;;;8.60;4.38;;;;;;;17.36;100.00;100662.00;5114708;28;20055;-64
2023/07/31 06:40:35;;;;;;;11.23;5.65;;;;;;;17.31;100.00;100653.91;5114344;28;20055;-64
2023/07/31 06:43:07;;;;;;;6.82;3.45;;;;;;;17.28;100.00;100651.78;5113228;28;20043;-65
2023/07/31 06:45:36;;;;;;;9.13;3.60;;;;;;;17.25;100.00;100644.97;5108382;28;20048;-66
2023/07/31 06:48:04;;;;;;;6.93;3.83;;;;;;;17.28;100.00;100635.25;5111606;28;20050;-64
2023/07/31 06:50:32;;;;;;;10.70;4.88;;;;;;;17.45;100.00;100633.38;5113224;28;20058;-65
2023/07/31 06:53:00;;;;;;;10.68;5.00;;;;;;;17.50;100.00;100635.16;5109958;28;20051;-64
2023/07/31 06:55:28;;;;;;;10.32;4.47;;;;;;;17.43;100.00;100621.06;5107207;28;20040;-62
2023/07/31 06:57:56;;;;;;;7.40;4.07;;;;;;;17.46;100.00;100618.50;5110230;28;20082;-61
2023/07/31 07:00:24;;;;;;;10.80;4.53;;;;;;;17.39;100.00;100622.81;5086850;28;20047;-64
2023/07/31 07:02:52;;;;;;;14.13;5.35;;;;;;;17.56;100.00;100624.84;5102061;28;20039;-64
2023/07/31 07:05:19;;;;;;;13.80;4.90;;;;;;;17.60;100.00;100623.03;5106191;28;20039;-63
2023/07/31 07:07:53;;;;;;;19.08;6.70;;;;;;;17.61;100.00;100619.19;5110661;28;20031;-62
2023/07/31 07:10:21;;;;;;;14.60;4.82;;;;;;;17.59;100.00;100627.75;5095162;28;20044;-62
2023/07/31 07:12:49;;;;;;;16.58;5.43;;;;;;;17.53;100.00;100617.19;5103795;28;20063;-62
2023/07/31 07:15:17;;;;;;;17.83;6.22;;;;;;;17.53;100.00;100612.47;5096733;28;20437;-63
2023/07/31 07:17:45;;;;;;;10.50;3.78;;;;;;;17.45;100.00;100611.34;5092902;28;20096;-62
2023/07/31 07:20:13;;;;;;;17.73;5.47;;;;;;;17.77;100.00;100614.81;5113960;28;20040;-62
2023/07/31 07:22:43;;;;;;;8.15;3.38;;;;;;;17.71;100.00;100613.34;5112525;28;20039;-63
2023/07/31 07:25:10;;;;;;;18.02;6.75;;;;;;;17.75;100.00;100619.84;5099220;28;20060;-61
2023/07/31 07:27:38;;;;;;;11.35;4.07;;;;;;;17.65;100.00;100606.34;5107219;28;20048;-62
2023/07/31 07:30:06;;;;;;;12.40;4.28;;;;;;;17.72;100.00;100609.44;5116031;28;20047;-60
2023/07/31 07:32:34;;;;;;;13.48;4.10;;;;;;;17.67;100.00;100607.66;5120505;28;20050;-63
2023/07/31 07:35:02;;;;;;;7.55;3.50;;;;;;;17.83;100.00;100605.28;5119433;28;20437;-64
2023/07/31 07:37:30;;;;;;;7.50;3.42;;;;;;;17.92;100.00;100607.25;5119539;28;20445;-65
2023/07/31 07:40:00;;;;;;;9.77;3.30;;;;;;;17.78;100.00;100605.44;5102917;28;20039;-64
2023/07/31 07:42:28;;;;;;;4.13;2.50;;;;;;;17.60;100.00;100612.03;5120359;28;20051;-62
2023/07/31 07:44:55;;;;;;;5.57;2.72;;;;;;;17.58;100.00;100606.00;5120993;27;20051;-64
2023/07/31 07:47:23;;;;;;;6.50;3.15;;;;;;;17.51;100.00;100603.75;5119734;28;20059;-63
2023/07/31 07:49:53;;;;;;;12.30;4.70;;;;;;;17.48;100.00;100606.31;5119376;28;20541;-62
2023/07/31 07:52:20;;;;;;;17.75;6.72;;;;;;;17.73;100.00;100608.34;5119356;28;20047;-64
2023/07/31 07:54:48;;;;;;;6.95;3.33;;;;;;;17.65;100.00;100609.94;5120811;28;20051;-62
2023/07/31 07:57:16;;;;;;;17.20;5.57;;;;;;;17.74;100.00;100607.19;5121385;27;20043;-64
2023/07/31 07:59:44;;;;;;;4.57;2.97;;;;;;;17.72;100.00;100603.13;5121147;28;20047;-63
2023/07/31 08:02:11;;;;;;;11.90;4.43;;;;;;;17.88;100.00;100607.88;5132705;27;20070;-63
2023/07/31 08:04:39;;;;;;;10.98;3.60;;;;;;;17.70;100.00;100594.38;5136261;28;20183;-63
2023/07/31 08:07:07;;;;;;;8.50;3.47;;;;;;;17.67;100.00;100601.34;5142338;27;20047;-61
2023/07/31 08:09:35;;;;;;;8.75;3.85;;;;;;;17.52;100.00;100608.13;5121395;28;20053;-63
2023/07/31 08:12:03;;;;;;;11.02;4.28;;;;;;;17.61;100.00;100600.69;5132073;28;20103;-64
2023/07/31 08:14:31;;;;;;;14.02;4.60;;;;;;;17.55;100.00;100592.91;5099198;28;20099;-61
2023/07/31 08:17:00;;;;;;;14.15;4.78;;;;;;;17.61;100.00;100592.44;5127159;28;20160;-63
2023/07/31 08:19:28;;;;;;;9.52;3.78;;;;;;;17.65;100.00;100598.09;5120072;28;20048;-61
2023/07/31 08:21:56;;;;;;;9.95;3.38;;;;;;;17.59;100.00;100596.63;5120782;28;20035;-64
2023/07/31 08:24:25;;;;;;;15.20;4.97;;;;;;;17.67;100.00;100601.34;5120750;28;20116;-65
2023/07/31 08:26:53;;;;;;;7.70;3.90;;;;;;;17.68;100.00;100595.53;5120512;28;20047;-62
2023/07/31 08:29:20;;;;;;;9.98;3.92;;;;;;;17.64;100.00;100590.97;5120306;27;20407;-62
2023/07/31 08:31:48;;;;;;;10.23;3.80;;;;;;;17.57;100.00;100596.94;5120418;27;20044;-63
2023/07/31 08:34:16;;;;;;;7.30;3.28;;;;;;;17.60;100.00;100598.25;5119265;28;20510;-64
2023/07/31 08:36:44;;;;;;;6.88;3.25;;;;;;;17.44;100.00;100593.19;5120237;28;20457;-63
2023/07/31 08:39:11;;;;;;;9.50;3.88;;;;;;;17.44;100.00;100587.69;5120352;28;20121;-62
2023/07/31 08:41:40;;;;;;;9.45;4.10;;;;;;;17.55;100.00;100581.88;5118508;27;20491;-63
2023/07/31 08:44:08;;;;;;;7.32;3.70;;;;;;;17.64;100.00;100599.25;5115939;28;20373;-62
2023/07/31 08:46:36;;;;;;;6.40;3.38;;;;;;;17.52;100.00;100588.03;5098939;28;20059;-64
2023/07/31 08:49:08;;;;;;;8.43;3.40;;;;;;;17.53;100.00;100592.41;5115079;28;20058;-63
2023/07/31 08:51:36;;;;;;;8.48;4.03;;;;;;;17.58;100.00;100586.72;5115539;28;20047;-63
2023/07/31 08:54:04;;;;;;;9.27;3.88;;;;;;;17.53;100.00;100589.63;5116652;28;20507;-63
2023/07/31 08:56:33;;;;;;;6.50;3.58;;;;;;;17.44;100.00;100590.44;5116709;28;20047;-65
2023/07/31 08:59:03;;;;;;;12.02;3.92;;;;;;;17.43;100.00;100591.56;5115794;28;20043;-64
2023/07/31 09:01:36;;;;;;;9.88;3.55;;;;;;;17.55;100.00;100593.69;5096417;28;20066;-64
2023/07/31 09:04:04;;;;;;;7.43;3.45;;;;;;;17.57;100.00;100598.91;5115565;28;20055;-63
2023/07/31 09:06:33;;;;;;;10.30;3.97;;;;;;;17.52;100.00;100588.03;5116538;28;20043;-64
2023/07/31 09:09:00;;;;;;;8.18;3.45;;;;;;;17.60;100.00;100592.75;5115457;28;20051;-62
2023/07/31 09:11:29;;;;;;;7.07;3.30;;;;;;;17.55;100.00;100598.41;5094733;28;20047;-64
2023/07/31 09:13:58;;;;;;;7.50;3.50;;;;;;;17.53;100.00;100586.88;5096397;28;20476;-62
2023/07/31 09:16:32;;;;;;;8.10;4.30;;;;;;;17.55;100.00;100587.38;5096161;28;20056;-62
2023/07/31 09:19:03;;;;;;;8.30;3.42;;;;;;;17.48;100.00;100581.53;5094453;28;20066;-62
2023/07/31 09:21:30;;;;;;;7.45;3.67;;;;;;;17.39;100.00;100584.25;5108734;28;20051;-62
2023/07/31 09:23:58;;;;;;;8.43;4.10;;;;;;;17.46;100.00;100585.44;5114877;28;20043;-62
2023/07/31 09:26:36;;;;;;;9.18;3.30;;;;;;;17.54;100.00;100583.00;5116559;28;20054;-63
2023/07/31 09:29:07;;;;;;;6.45;3.30;;;;;;;17.56;100.00;100584.31;5116686;28;20051;-63
2023/07/31 09:31:42;;;;;;;8.07;3.85;;;;;;;17.53;100.00;100581.38;5116068;27;20100;-63
2023/07/31 09:34:11;;;;;;;8.60;3.90;;;;;;;17.52;100.00;100577.00;5116273;28;20496;-65
2023/07/31 09:36:47;;;;;;;8.95;3.92;;;;;;;17.63;100.00;100572.81;5116076;28;20054;-63
2023/07/31 09:39:17;;;;;;;8.27;3.85;;;;;;;17.75;100.00;100564.75;5115910;28;20052;-61
2023/07/31 09:41:55;;;;;;;7.85;3.15;;;;;;;17.98;100.00;100567.38;5114538;28;20048;-61
2023/07/31 09:44:39;;;;;;;8.25;4.25;;;;;;;17.87;100.00;100570.44;5115648;28;20050;-62
2023/07/31 09:47:16;;;;;;;8.57;4.00;;;;;;;17.81;100.00;100562.66;5115846;28;20052;-62
2023/07/31 09:49:46;;;;;;;9.82;4.30;;;;;;;17.79;100.00;100560.19;5095045;28;20036;-63
2023/07/31 09:52:14;;;;;;;8.60;4.05;;;;;;;17.78;100.00;100560.53;5096138;28;20044;-62
2023/07/31 09:54:42;;;;;;;8.60;4.60;;;;;;;17.79;100.00;100564.88;5093498;28;20052;-63
2023/07/31 09:57:11;;;;;;;9.25;4.38;;;;;;;17.93;100.00;100567.53;5097086;28;20055;-64
2023/07/31 09:59:39;;;;;;;8.48;4.47;;;;;;;17.91;100.00;100570.59;5098120;28;20074;-64
2023/07/31 10:02:10;;;;;;;6.50;3.28;;;;;;;17.86;100.00;100570.75;5116416;28;20054;-65
2023/07/31 10:04:37;;;;;;;6.93;3.15;;;;;;;17.85;100.00;100558.94;5116058;28;20057;-62
2023/07/31 10:07:05;;;;;;;8.48;4.47;;;;;;;17.90;100.00;100570.94;5115232;28;20488;-62
2023/07/31 10:09:34;;;;;;;9.00;3.88;;;;;;;17.93;100.00;100559.25;5114166;28;20056;-64
2023/07/31 10:12:05;;;;;;;11.75;3.78;;;;;;;17.87;100.00;100553.91;5103601;28;20044;-63
2023/07/31 10:14:33;;;;;;;10.65;4.40;;;;;;;17.92;100.00;100552.94;5115220;28;20044;-64
2023/07/31 10:17:01;;;;;;;9.40;4.00;;;;;;;17.96;100.00;100553.09;5112077;28;20435;-65
2023/07/31 10:19:30;;;;;;;9.15;4.20;;;;;;;18.01;100.00;100555.69;5111360;28;20044;-64
2023/07/31 10:22:00;;;;;;;8.50;4.18;;;;;;;17.94;100.00;100563.63;5109902;28;20040;-65
2023/07/31 10:24:29;;;;;;;8.45;3.95;;;;;;;17.93;100.00;100554.56;5071281;28;20063;-63
2023/07/31 10:27:00;;;;;;;7.93;4.40;;;;;;;17.97;100.00;100554.72;5104910;28;20039;-63
2023/07/31 10:29:29;;;;;;;11.82;4.55;;;;;;;17.85;100.00;100550.66;5114060;28;20048;-64
2023/07/31 10:31:59;;;;;;;5.85;3.63;;;;;;;17.89;100.00;100548.06;5114041;28;20052;-65
2023/07/31 10:34:27;;;;;;;7.07;3.30;;;;;;;17.96;100.00;100550.34;5114399;28;20496;-64
2023/07/31 10:37:36;;;;;;;9.25;4.32;;;;;;;18.05;100.00;100551.16;5114925;28;20047;-65
2023/07/31 10:40:17;;;;;;;7.75;3.85;;;;;;;18.09;100.00;100552.13;5051182;28;20045;-65
2023/07/31 10:42:57;;;;;;;7.80;3.90;;;;;;;18.15;100.00;100548.06;5019261;28;20056;-64
2023/07/31 10:45:37;;;;;;;7.40;3.97;;;;;;;18.12;100.00;100551.47;5091382;28;20044;-63
2023/07/31 10:48:13;;;;;;;8.05;3.92;;;;;;;18.08;100.00;100544.97;5096131;28;20043;-65
2023/07/31 10:50:52;;;;;;;9.73;4.10;;;;;;;18.09;100.00;100546.63;5113902;28;20044;-64
2023/07/31 10:53:30;;;;;;;8.07;4.30;;;;;;;18.07;100.00;100548.88;5113890;28;20055;-64
2023/07/31 10:56:09;;;;;;;9.25;4.50;;;;;;;18.08;100.00;100553.25;5110474;28;20045;-64
2023/07/31 10:58:37;;;;;;;8.88;4.20;;;;;;;18.17;100.00;100548.53;5079681;28;20113;-64
2023/07/31 11:01:06;;;;;;;8.43;3.90;;;;;;;18.18;100.00;100539.13;5114104;28;20046;-65
2023/07/31 11:03:48;;;;;;;7.60;3.97;;;;;;;18.15;100.00;100545.28;5100525;28;20104;-64
2023/07/31 11:06:17;;;;;;;7.82;3.70;;;;;;;18.17;100.00;100540.28;5109328;28;20077;-65
2023/07/31 11:08:48;;;;;;;10.98;4.50;;;;;;;18.23;100.00;100547.25;5096296;28;20103;-64
2023/07/31 11:11:18;;;;;;;6.40;3.40;;;;;;;18.30;100.00;100542.06;5113110;28;20734;-65
2023/07/31 11:13:49;;;;;;;8.23;3.80;;;;;;;18.33;100.00;100535.06;5114071;28;20515;-62
2023/07/31 11:16:21;;;;;;;7.35;3.70;;;;;;;18.28;100.00;100536.03;5113033;28;20039;-66
2023/07/31 11:18:51;;;;;;;10.45;3.80;;;;;;;18.24;100.00;100537.03;5112115;28;20118;-63
2023/07/31 11:21:22;;;;;;;7.10;3.67;;;;;;;18.28;100.00;100535.25;5083307;28;20043;-64